Time;durP1;ratioP1;P1;durP2;ratioP2;P2;SDS_P1;SDS_P2;PMS_P1;PMS_P2;Temp;Humidity;BMP_temperature;BMP_pressure;BME280_temperature;BME280_humidity;BME280_pressure;Samples;Min_cycle;Max_cycle;Signal;HPM_P1;HPM_P2
2021/11/09 00:02:43;;;;;;;;;;;16.40;41.40;;;;;;8365599;28;19921;-50
2021/11/09 00:06:48;;;;;;;;;;;16.40;41.40;;;;;;8373376;28;20362;-50
2021/11/09 00:10:49;;;;;;;;;;;16.40;41.40;;;;;;8365729;28;19917;-52
2021/11/09 00:14:52;;;;;;;;;;;16.30;41.30;;;;;;8364508;28;21309;-50
2021/11/09 00:18:52;;;;;;;;;;;16.40;41.40;;;;;;8365840;28;19927;-49
2021/11/09 00:22:53;;;;;;;;;;;16.30;41.40;;;;;;8365370;28;20467;-50
2021/11/09 00:26:53;;;;;;;;;;;16.30;41.40;;;;;;8365126;28;19913;-49
2021/11/09 00:30:54;;;;;;;;;;;16.30;41.40;;;;;;8365102;28;19917;-48
2021/11/09 00:34:55;;;;;;;;;;;16.30;41.40;;;;;;8365011;28;20007;-49
2021/11/09 00:38:56;;;;;;;;;;;16.30;41.40;;;;;;8363349;28;20317;-50
2021/11/09 00:42:56;;;;;;;;;;;16.30;41.40;;;;;;8364679;28;19936;-52
2021/11/09 00:46:57;;;;;;;;;;;16.30;41.40;;;;;;8364912;28;20442;-50
2021/11/09 00:50:57;;;;;;;;;;;16.30;41.40;;;;;;8364245;28;20382;-49
2021/11/09 00:54:58;;;;;;;;;;;16.30;41.40;;;;;;8364933;28;20392;-49
2021/11/09 00:59:00;;;;;;;;;;;16.30;41.30;;;;;;8364322;28;20004;-49
2021/11/09 01:03:01;;;;;;;;;;;16.30;41.40;;;;;;8362811;28;19931;-48
2021/11/09 01:07:02;;;;;;;;;;;16.30;41.30;;;;;;8364481;28;19944;-48
2021/11/09 01:11:03;;;;;;;;;;;16.30;41.40;;;;;;8364283;28;20294;-48
2021/11/09 01:15:05;;;;;;;;;;;16.30;41.30;;;;;;8363491;28;19921;-48
2021/11/09 01:19:07;;;;;;;;;;;16.30;41.40;;;;;;8363710;28;20389;-49
2021/11/09 01:23:08;;;;;;;;;;;16.30;41.30;;;;;;8363752;28;19925;-48
2021/11/09 01:27:08;;;;;;;;;;;16.30;41.30;;;;;;8363354;28;19913;-49
2021/11/09 01:31:09;;;;;;;;;;;16.30;41.30;;;;;;8363681;28;20297;-51
2021/11/09 01:35:10;;;;;;;;;;;16.30;41.30;;;;;;8363588;28;20015;-49
2021/11/09 01:39:11;;;;;;;;;;;16.30;41.30;;;;;;8363142;28;20316;-49
2021/11/09 01:43:12;;;;;;;;;;;16.30;41.30;;;;;;8363443;28;20012;-49
2021/11/09 01:47:12;;;;;;;;;;;16.20;41.30;;;;;;8363694;28;20362;-49
2021/11/09 01:51:14;;;;;;;;;;;16.20;41.30;;;;;;8363009;28;19921;-49
2021/11/09 01:55:16;;;;;;;;;;;16.20;41.30;;;;;;8363172;28;20438;-48
2021/11/09 01:59:17;;;;;;;;;;;16.20;41.30;;;;;;8362857;28;19921;-47
2021/11/09 02:03:18;;;;;;;;;;;16.20;41.30;;;;;;8363049;28;19925;-49
2021/11/09 02:07:18;;;;;;;;;;;16.20;41.30;;;;;;8361405;28;19913;-50
2021/11/09 02:11:19;;;;;;;;;;;16.20;41.30;;;;;;8359126;28;19920;-48
2021/11/09 02:15:19;;;;;;;;;;;16.20;41.30;;;;;;8365325;28;19966;-50
2021/11/09 02:19:20;;;;;;;;;;;16.20;41.30;;;;;;8369625;28;20020;-51
2021/11/09 02:23:20;;;;;;;;;;;16.20;41.20;;;;;;8368711;28;19925;-50
2021/11/09 02:27:21;;;;;;;;;;;16.20;41.30;;;;;;8369467;28;19966;-51
2021/11/09 02:31:21;;;;;;;;;;;16.10;41.20;;;;;;8368963;28;19924;-50
2021/11/09 02:35:23;;;;;;;;;;;16.20;41.30;;;;;;8368275;28;20023;-49
2021/11/09 02:39:23;;;;;;;;;;;16.20;41.30;;;;;;8368927;28;19960;-52
2021/11/09 02:43:24;;;;;;;;;;;16.20;41.30;;;;;;8368869;28;20431;-50
2021/11/09 02:47:28;;;;;;;;;;;16.10;41.20;;;;;;8368372;28;20263;-49
2021/11/09 02:51:35;;;;;;;;;;;16.10;41.20;;;;;;8368229;28;19917;-50
2021/11/09 02:55:39;;;;;;;;;;;16.10;41.20;;;;;;8369426;28;19947;-48
2021/11/09 03:08:36;;;;;;;;;;;16.10;41.20;;;;;;8368384;28;19917;-49
2021/11/09 03:12:39;;;;;;;;;;;16.10;41.20;;;;;;8367899;28;20293;-48
2021/11/09 03:16:41;;;;;;;;;;;16.10;41.20;;;;;;8367712;28;19963;-48
2021/11/09 03:46:28;;;;;;;;;;;16.10;41.20;;;;;;8368742;28;20026;-48
2021/11/09 03:50:29;;;;;;;;;;;16.10;41.20;;;;;;8365937;28;19963;-49
2021/11/09 03:54:31;;;;;;;;;;;16.00;41.20;;;;;;8366624;28;19936;-51
2021/11/09 03:58:41;;;;;;;;;;;16.00;41.10;;;;;;8366122;28;20335;-49
2021/11/09 04:02:58;;;;;;;;;;;16.00;41.10;;;;;;8365876;28;19999;-50
2021/11/09 04:07:12;;;;;;;;;;;16.00;41.20;;;;;;8365993;28;19928;-49
2021/11/09 04:15:30;;;;;;;;;;;16.00;41.10;;;;;;8365286;28;20347;-48
2021/11/09 04:19:49;;;;;;;;;;;16.00;41.10;;;;;;8365487;28;19947;-48
2021/11/09 04:24:26;;;;;;;;;;;16.00;41.10;;;;;;8364953;28;19920;-48
2021/11/09 05:01:05;;;;;;;;;;;16.00;41.10;;;;;;8366302;28;20016;-49
2021/11/09 05:02:43;;;;;;;;;;;16.00;41.10;;;;;;8363942;28;20043;-49
2021/11/09 05:11:03;;;;;;;;;;;16.00;41.10;;;;;;8367632;28;19924;-48
2021/11/09 05:15:04;;;;;;;;;;;15.90;41.00;;;;;;8363591;28;19944;-50
2021/11/09 05:19:05;;;;;;;;;;;15.90;41.00;;;;;;8363920;28;19952;-49
2021/11/09 05:23:05;;;;;;;;;;;15.90;41.00;;;;;;8364056;28;20333;-49
2021/11/09 05:27:06;;;;;;;;;;;15.90;41.00;;;;;;8363385;28;19921;-49
2021/11/09 05:31:07;;;;;;;;;;;16.00;41.60;;;;;;8363823;28;19921;-49
2021/11/09 05:35:07;;;;;;;;;;;15.90;41.00;;;;;;8363520;28;20293;-49
2021/11/09 05:39:19;;;;;;;;;;;15.90;41.00;;;;;;8363254;28;19917;-48
2021/11/09 05:43:20;;;;;;;;;;;15.90;41.50;;;;;;8363907;28;20366;-48
2021/11/09 05:47:20;;;;;;;;;;;15.90;41.00;;;;;;8363156;28;19917;-49
2021/11/09 05:51:21;;;;;;;;;;;15.90;41.00;;;;;;8367388;28;19917;-48
2021/11/09 05:55:21;;;;;;;;;;;15.90;41.00;;;;;;8369941;28;19920;-48
2021/11/09 05:59:22;;;;;;;;;;;15.90;41.00;;;;;;8369288;28;20018;-47
2021/11/09 06:03:23;;;;;;;;;;;15.90;41.00;;;;;;8369852;28;19925;-47
2021/11/09 06:07:23;;;;;;;;;;;15.80;41.00;;;;;;8369587;28;19931;-48
2021/11/09 06:11:24;;;;;;;;;;;15.80;40.90;;;;;;8369078;28;19947;-49
2021/11/09 06:15:24;;;;;;;;;;;15.80;41.00;;;;;;8369581;28;19917;-50
2021/11/09 06:19:25;;;;;;;;;;;15.80;41.00;;;;;;8369441;28;20404;-50
2021/11/09 06:23:25;;;;;;;;;;;15.80;41.00;;;;;;8368809;28;19925;-50
2021/11/09 06:27:26;;;;;;;;;;;15.80;40.90;;;;;;8369060;28;20012;-49
2021/11/09 06:31:30;;;;;;;;;;;15.80;41.00;;;;;;8369092;28;20334;-49
2021/11/09 06:35:30;;;;;;;;;;;15.80;40.90;;;;;;8368496;28;19916;-49
2021/11/09 06:39:31;;;;;;;;;;;15.80;41.00;;;;;;8368933;28;19978;-51
2021/11/09 06:43:31;;;;;;;;;;;15.80;41.00;;;;;;8368522;28;19925;-49
2021/11/09 06:47:32;;;;;;;;;;;15.80;41.00;;;;;;8368059;28;19917;-49
2021/11/09 06:51:33;;;;;;;;;;;15.80;41.00;;;;;;8368404;28;19952;-51
2021/11/09 06:55:37;;;;;;;;;;;15.80;41.00;;;;;;8368746;28;19921;-49
2021/11/09 06:59:37;;;;;;;;;;;15.80;41.00;;;;;;8367963;28;19925;-49
2021/11/09 07:03:39;;;;;;;;;;;15.80;40.90;;;;;;8367878;28;19925;-48
2021/11/09 07:07:42;;;;;;;;;;;15.80;40.90;;;;;;8367935;28;20310;-51
2021/11/09 07:11:42;;;;;;;;;;;15.80;41.00;;;;;;8367278;28;19952;-48
2021/11/09 07:15:44;;;;;;;;;;;15.80;41.00;;;;;;8367695;28;19924;-48
2021/11/09 07:19:50;;;;;;;;;;;15.80;41.00;;;;;;8367968;28;19916;-50
2021/11/09 07:23:50;;;;;;;;;;;15.80;41.00;;;;;;8367096;28;19924;-49
2021/11/09 07:27:51;;;;;;;;;;;15.80;40.90;;;;;;8367031;28;20404;-52
2021/11/09 07:31:54;;;;;;;;;;;15.80;40.90;;;;;;8367216;28;19917;-51
2021/11/09 07:35:55;;;;;;;;;;;15.80;40.90;;;;;;8366583;28;19917;-52
2021/11/09 07:39:56;;;;;;;;;;;15.80;41.00;;;;;;8367349;28;19921;-48
2021/11/09 07:43:58;;;;;;;;;;;15.80;40.90;;;;;;8366701;28;19982;-48
2021/11/09 07:47:59;;;;;;;;;;;15.80;41.00;;;;;;8366108;28;19920;-51
2021/11/09 07:51:59;;;;;;;;;;;15.80;40.90;;;;;;8366372;28;19963;-51
2021/11/09 08:00:20;;;;;;;;;;;15.80;40.90;;;;;;8366527;28;19942;-48
2021/11/09 08:04:34;;;;;;;;;;;15.80;40.90;;;;;;8370571;28;19925;-48
2021/11/09 08:08:39;;;;;;;;;;;15.80;40.90;;;;;;8364624;28;19916;-51
2021/11/09 08:12:40;;;;;;;;;;;15.90;40.80;;;;;;8372439;28;20345;-49
2021/11/09 08:16:41;;;;;;;;;;;15.90;40.80;;;;;;8365789;28;19917;-49
2021/11/09 08:20:41;;;;;;;;;;;15.90;40.70;;;;;;8365019;28;19921;-50
2021/11/09 08:24:42;;;;;;;;;;;16.00;40.80;;;;;;8365681;28;19929;-49
2021/11/09 08:28:44;;;;;;;;;;;16.00;40.80;;;;;;8365217;28;19955;-52
2021/11/09 08:32:47;;;;;;;;;;;16.00;40.70;;;;;;8364730;28;19969;-48
2021/11/09 08:36:48;;;;;;;;;;;16.00;40.70;;;;;;8364790;28;19917;-51
2021/11/09 08:40:52;;;;;;;;;;;16.00;40.80;;;;;;8364875;28;20354;-49
2021/11/09 08:45:00;;;;;;;;;;;16.00;40.80;;;;;;8364477;28;20313;-50
2021/11/09 08:49:02;;;;;;;;;;;16.00;40.80;;;;;;8369747;28;19945;-49
2021/11/09 08:53:08;;;;;;;;;;;16.00;40.80;;;;;;8364487;28;20012;-48
2021/11/09 09:05:42;;;;;;;;;;;16.00;40.90;;;;;;8363824;28;20004;-48
2021/11/09 09:09:42;;;;;;;;;;;16.00;40.90;;;;;;8364652;28;20011;-49
2021/11/09 09:13:43;;;;;;;;;;;16.00;41.50;;;;;;8362751;28;19928;-51
2021/11/09 09:17:43;;;;;;;;;;;16.00;41.00;;;;;;8363407;28;19944;-48
2021/11/09 09:21:48;;;;;;;;;;;16.00;41.00;;;;;;8364183;28;19959;-52
2021/11/09 09:30:00;;;;;;;;;;;16.00;41.10;;;;;;8363797;28;19916;-50
2021/11/09 09:55:41;;;;;;;;;;;16.00;41.10;;;;;;8364426;28;20282;-51
2021/11/09 09:59:43;;;;;;;;;;;16.00;41.20;;;;;;8362955;28;19917;-48
2021/11/09 10:03:43;;;;;;;;;;;16.00;41.10;;;;;;8362777;28;19925;-48
2021/11/09 10:07:50;;;;;;;;;;;16.00;41.20;;;;;;8363154;28;19959;-52
2021/11/09 10:11:51;;;;;;;;;;;16.10;41.20;;;;;;8362736;28;20623;-49
2021/11/09 10:15:53;;;;;;;;;;;16.10;41.20;;;;;;8363218;28;20046;-50
2021/11/09 10:19:54;;;;;;;;;;;16.10;41.20;;;;;;8362973;28;19952;-49
2021/11/09 10:23:55;;;;;;;;;;;16.10;41.20;;;;;;8362240;28;20019;-50
2021/11/09 10:28:00;;;;;;;;;;;16.10;41.10;;;;;;8362710;28;19940;-51
2021/11/09 10:32:15;;;;;;;;;;;16.10;41.10;;;;;;8362907;28;19917;-49
2021/11/09 10:36:24;;;;;;;;;;;16.10;41.10;;;;;;8364559;28;19913;-48
2021/11/09 10:40:26;;;;;;;;;;;16.10;41.10;;;;;;8369218;28;19913;-49
2021/11/09 10:44:30;;;;;;;;;;;16.20;41.10;;;;;;8368344;28;20358;-49
2021/11/09 10:48:31;;;;;;;;;;;16.20;41.10;;;;;;8368484;28;19920;-48
2021/11/09 10:52:35;;;;;;;;;;;16.20;41.10;;;;;;8367850;28;19917;-49
2021/11/09 10:56:55;;;;;;;;;;;16.20;41.10;;;;;;8368373;28;19920;-49
2021/11/09 11:03:18;;;;;;;;;;;16.20;41.10;;;;;;8372484;28;19935;-53
2021/11/09 11:05:20;;;;;;;;;;;16.20;41.10;;;;;;8368196;28;19932;-54
2021/11/09 11:09:22;;;;;;;;;;;16.20;41.10;;;;;;8369100;28;20304;-51
2021/11/09 11:13:23;;;;;;;;;;;16.20;41.10;;;;;;8368281;28;20380;-52
2021/11/09 11:17:24;;;;;;;;;;;16.30;41.10;;;;;;8367377;28;20366;-52
2021/11/09 11:21:25;;;;;;;;;;;16.30;41.10;;;;;;8368056;28;19913;-54
2021/11/09 11:25:26;;;;;;;;;;;16.30;41.10;;;;;;8367328;28;19932;-50
2021/11/09 11:29:31;;;;;;;;;;;16.30;41.10;;;;;;8366757;28;20328;-49
2021/11/09 11:33:32;;;;;;;;;;;16.30;41.10;;;;;;8367386;28;20285;-49
2021/11/09 11:37:32;;;;;;;;;;;16.30;41.10;;;;;;8367003;28;19913;-48
2021/11/09 11:41:35;;;;;;;;;;;16.30;41.10;;;;;;8366704;28;19917;-49
2021/11/09 11:45:51;;;;;;;;;;;16.30;41.10;;;;;;8367019;28;20382;-52
2021/11/09 11:49:58;;;;;;;;;;;16.30;41.10;;;;;;8365745;28;20324;-48
2021/11/09 11:53:58;;;;;;;;;;;16.30;41.10;;;;;;8365924;28;19923;-48
2021/11/09 11:57:59;;;;;;;;;;;16.30;41.10;;;;;;8366161;28;19921;-48
2021/11/09 12:01:59;;;;;;;;;;;16.30;41.10;;;;;;8366464;28;19996;-48
2021/11/09 12:06:02;;;;;;;;;;;16.30;41.10;;;;;;8365696;28;19963;-52
2021/11/09 12:10:04;;;;;;;;;;;16.30;41.10;;;;;;8366249;28;20429;-52
2021/11/09 12:14:06;;;;;;;;;;;16.30;41.10;;;;;;8365998;28;20346;-48
2021/11/09 12:18:25;;;;;;;;;;;16.40;41.10;;;;;;8365265;28;20074;-53
2021/11/09 12:22:40;;;;;;;;;;;16.40;41.10;;;;;;8365917;28;20366;-52
2021/11/09 12:26:44;;;;;;;;;;;16.40;41.10;;;;;;8365628;28;19927;-52
2021/11/09 12:30:46;;;;;;;;;;;16.40;41.10;;;;;;8365704;28;20387;-49
2021/11/09 12:34:57;;;;;;;;;;;16.30;41.10;;;;;;8365598;28;19940;-49
2021/11/09 12:38:58;;;;;;;;;;;16.40;41.10;;;;;;8364957;28;20373;-51
2021/11/09 12:43:00;;;;;;;;;;;16.40;41.10;;;;;;8365203;28;19924;-53
2021/11/09 12:47:08;;;;;;;;;;;16.40;41.10;;;;;;8365231;28;19913;-49
2021/11/09 12:51:10;;;;;;;;;;;16.40;41.10;;;;;;8364772;28;19970;-47
2021/11/09 12:55:11;;;;;;;;;;;16.40;41.00;;;;;;8365006;28;19925;-47
2021/11/09 12:59:19;;;;;;;;;;;16.40;41.00;;;;;;8364284;28;19917;-49
2021/11/09 13:03:24;;;;;;;;;;;16.40;41.00;;;;;;8364036;28;19928;-49
2021/11/09 13:07:42;;;;;;;;;;;16.40;41.00;;;;;;8364260;28;19956;-48
2021/11/09 13:11:46;;;;;;;;;;;16.40;41.00;;;;;;8364208;28;19913;-48
2021/11/09 13:15:46;;;;;;;;;;;16.50;41.10;;;;;;8363920;28;19917;-47
2021/11/09 13:19:56;;;;;;;;;;;16.40;41.00;;;;;;8363942;28;20028;-48
2021/11/09 13:23:56;;;;;;;;;;;16.50;41.00;;;;;;8363357;28;19925;-48
2021/11/09 13:27:57;;;;;;;;;;;16.50;41.60;;;;;;8363963;28;19921;-48
2021/11/09 13:31:57;;;;;;;;;;;16.50;41.00;;;;;;8364021;28;19962;-51
2021/11/09 13:35:58;;;;;;;;;;;16.50;41.10;;;;;;8363305;28;19917;-47
2021/11/09 13:40:00;;;;;;;;;;;16.50;41.10;;;;;;8363520;28;19917;-48
2021/11/09 13:44:06;;;;;;;;;;;16.50;41.00;;;;;;8363543;28;20431;-51
2021/11/09 13:48:10;;;;;;;;;;;16.50;41.00;;;;;;8363079;28;19917;-49
2021/11/09 13:52:11;;;;;;;;;;;16.50;41.00;;;;;;8363666;28;19928;-49
2021/11/09 13:56:19;;;;;;;;;;;16.50;41.00;;;;;;8363343;28;20002;-48
2021/11/09 14:00:36;;;;;;;;;;;16.50;41.10;;;;;;8362458;28;19943;-49
2021/11/09 14:09:05;;;;;;;;;;;16.50;41.10;;;;;;8364289;28;19917;-52
2021/11/09 14:17:14;;;;;;;;;;;16.50;41.00;;;;;;8368965;28;19953;-48
2021/11/09 14:21:14;;;;;;;;;;;16.50;41.00;;;;;;8368427;28;20301;-49
2021/11/09 14:25:18;;;;;;;;;;;16.40;40.30;;;;;;8368735;28;20341;-47
2021/11/09 14:29:20;;;;;;;;;;;16.30;39.30;;;;;;8367853;28;19963;-47
2021/11/09 14:33:21;;;;;;;;;;;16.20;39.30;;;;;;8368633;28;19917;-49
2021/11/09 14:37:26;;;;;;;;;;;16.10;40.50;;;;;;8368925;28;19920;-52
2021/11/09 14:41:33;;;;;;;;;;;16.20;40.80;;;;;;8368003;28;19917;-49
2021/11/09 14:45:39;;;;;;;;;;;16.20;40.60;;;;;;8367306;28;20012;-49
2021/11/09 14:49:45;;;;;;;;;;;16.30;40.50;;;;;;8371519;28;20337;-48
2021/11/09 14:54:35;;;;;;;;;;;16.40;40.50;;;;;;8369015;28;19924;-49
2021/11/09 14:58:42;;;;;;;;;;;16.40;40.30;;;;;;8360638;28;20058;-49
2021/11/09 15:02:43;;;;;;;;;;;16.50;40.40;;;;;;8293167;28;19963;-48
2021/11/09 15:06:55;;;;;;;;;;;16.50;40.40;;;;;;8367864;28;20312;-50
2021/11/09 15:11:11;;;;;;;;;;;16.50;40.40;;;;;;8371809;28;19996;-52
2021/11/09 15:28:22;;;;;;;;;;;16.60;40.40;;;;;;8372592;28;19982;-50
2021/11/09 15:32:35;;;;;;;;;;;16.60;40.50;;;;;;8366769;28;19917;-48
2021/11/09 15:40:58;;;;;;;;;;;16.60;40.50;;;;;;8367183;28;19967;-52
2021/11/09 15:44:59;;;;;;;;;;;16.50;40.50;;;;;;8366352;28;20015;-50
2021/11/09 15:48:59;;;;;;;;;;;16.50;40.50;;;;;;8366579;28;19913;-50
2021/11/09 15:53:00;;;;;;;;;;;16.50;40.50;;;;;;8366626;28;19978;-49
2021/11/09 15:57:00;;;;;;;;;;;16.50;40.60;;;;;;8366344;28;19921;-49
2021/11/09 16:01:02;;;;;;;;;;;16.50;40.60;;;;;;8366534;28;19921;-51
2021/11/09 16:05:05;;;;;;;;;;;16.50;40.60;;;;;;8366051;28;19928;-51
2021/11/09 16:09:08;;;;;;;;;;;16.60;40.70;;;;;;8365292;28;19924;-49
2021/11/09 16:13:09;;;;;;;;;;;16.50;40.60;;;;;;8366031;28;19913;-51
2021/11/09 16:17:10;;;;;;;;;;;16.50;40.70;;;;;;8365719;28;20298;-52
2021/11/09 16:21:11;;;;;;;;;;;16.50;40.60;;;;;;8365081;28;19923;-51
2021/11/09 16:25:12;;;;;;;;;;;16.50;40.70;;;;;;8365399;28;19921;-50
2021/11/09 16:29:20;;;;;;;;;;;16.50;40.70;;;;;;8365255;28;19923;-48
2021/11/09 16:33:27;;;;;;;;;;;16.50;40.70;;;;;;8365070;28;19936;-49
2021/11/09 16:37:29;;;;;;;;;;;16.50;40.70;;;;;;8366544;28;19927;-48
2021/11/09 16:41:33;;;;;;;;;;;16.50;40.70;;;;;;8364701;28;19913;-53
2021/11/09 16:45:40;;;;;;;;;;;16.50;40.80;;;;;;8364738;28;19928;-52
2021/11/09 16:54:05;;;;;;;;;;;16.50;40.80;;;;;;8364367;28;22779;-48
2021/11/09 16:58:22;;;;;;;;;;;16.50;40.80;;;;;;8370571;28;19921;-49
2021/11/09 17:03:33;;;;;;;;;;;16.50;40.80;;;;;;8364407;28;19971;-49
2021/11/09 18:01:52;;;;;;;;;;;16.50;40.90;;;;;;8364284;28;19927;-50
2021/11/09 18:20:49;;;;;;;;;;;16.40;40.90;;;;;;8369328;28;19917;-49
2021/11/09 18:24:49;;;;;;;;;;;16.40;40.90;;;;;;8369469;28;20297;-50
2021/11/09 18:28:50;;;;;;;;;;;16.40;40.90;;;;;;8369385;28;20322;-51
2021/11/09 18:32:50;;;;;;;;;;;16.40;40.90;;;;;;8368634;28;19920;-53
2021/11/09 18:36:53;;;;;;;;;;;16.40;40.90;;;;;;8369338;28;20369;-50
2021/11/09 18:40:54;;;;;;;;;;;16.40;40.90;;;;;;8368734;28;20389;-50
2021/11/09 18:44:55;;;;;;;;;;;16.40;40.90;;;;;;8368182;28;19932;-50
2021/11/09 18:49:00;;;;;;;;;;;16.40;40.90;;;;;;8369148;28;19971;-52
2021/11/09 18:53:00;;;;;;;;;;;16.40;41.00;;;;;;8368550;28;19996;-48
2021/11/09 18:57:01;;;;;;;;;;;16.40;41.00;;;;;;8368097;28;19921;-49
2021/11/09 19:01:01;;;;;;;;;;;16.40;40.90;;;;;;8368250;28;19913;-49
2021/11/09 19:05:02;;;;;;;;;;;16.40;41.00;;;;;;8367983;28;19924;-48
2021/11/09 19:09:03;;;;;;;;;;;16.40;40.90;;;;;;8367880;28;20366;-48
2021/11/09 19:13:04;;;;;;;;;;;16.40;40.90;;;;;;8368091;28;20341;-50
2021/11/09 19:17:04;;;;;;;;;;;16.40;40.90;;;;;;8367202;28;19917;-50
2021/11/09 19:21:05;;;;;;;;;;;16.40;41.00;;;;;;8367435;28;19917;-49
2021/11/09 19:25:05;;;;;;;;;;;16.30;40.90;;;;;;8367240;28;19928;-49
2021/11/09 19:29:06;;;;;;;;;;;16.30;40.90;;;;;;8367329;28;19940;-49
2021/11/09 19:33:07;;;;;;;;;;;16.30;40.90;;;;;;8366680;28;20283;-49
2021/11/09 19:37:07;;;;;;;;;;;16.30;40.90;;;;;;8367088;28;19921;-49
2021/11/09 19:41:08;;;;;;;;;;;16.30;40.90;;;;;;8366938;28;20362;-49
2021/11/09 19:45:11;;;;;;;;;;;16.30;40.90;;;;;;8366484;28;19940;-48
2021/11/09 19:49:13;;;;;;;;;;;16.30;40.90;;;;;;8366809;28;19918;-48
2021/11/09 19:53:14;;;;;;;;;;;16.40;41.00;;;;;;8366851;28;19963;-49
2021/11/09 19:57:15;;;;;;;;;;;16.40;40.90;;;;;;8366653;28;19925;-48
2021/11/09 20:01:17;;;;;;;;;;;16.30;40.90;;;;;;8366562;28;20385;-50
2021/11/09 20:05:19;;;;;;;;;;;16.30;40.90;;;;;;8365753;28;19940;-48
2021/11/09 20:09:23;;;;;;;;;;;16.40;41.00;;;;;;8338095;28;20363;-49
2021/11/09 20:13:24;;;;;;;;;;;16.30;40.90;;;;;;8361264;28;19979;-50
2021/11/09 20:17:25;;;;;;;;;;;16.30;40.90;;;;;;8365466;28;19919;-51
2021/11/09 20:21:26;;;;;;;;;;;16.30;40.90;;;;;;8366090;28;20409;-50
2021/11/09 20:25:27;;;;;;;;;;;16.30;40.90;;;;;;8365454;28;19946;-52
2021/11/09 20:29:27;;;;;;;;;;;16.30;40.90;;;;;;8365317;28;19960;-49
2021/11/09 20:33:29;;;;;;;;;;;16.30;40.90;;;;;;8365448;28;20000;-50
2021/11/09 20:37:30;;;;;;;;;;;16.30;40.90;;;;;;8365080;28;19953;-49
2021/11/09 20:41:31;;;;;;;;;;;16.30;40.90;;;;;;8364818;28;20357;-49
2021/11/09 20:45:31;;;;;;;;;;;16.30;40.90;;;;;;8364823;28;19975;-51
2021/11/09 20:49:32;;;;;;;;;;;16.30;40.90;;;;;;8365001;28;19983;-49
2021/11/09 20:53:32;;;;;;;;;;;16.30;40.90;;;;;;8364465;28;19917;-49
2021/11/09 20:57:33;;;;;;;;;;;16.30;40.90;;;;;;8364576;28;19921;-49
2021/11/09 21:01:33;;;;;;;;;;;16.30;40.90;;;;;;8364681;28;19919;-48
2021/11/09 21:05:34;;;;;;;;;;;16.30;40.90;;;;;;8363946;28;19925;-49
2021/11/09 21:09:36;;;;;;;;;;;16.30;40.90;;;;;;8364841;28;20377;-49
2021/11/09 21:14:05;;;;;;;;;;;16.30;40.90;;;;;;8364126;28;20022;-50
2021/11/09 21:18:25;;;;;;;;;;;16.30;40.90;;;;;;8363589;28;19923;-51
2021/11/09 21:22:25;;;;;;;;;;;16.30;40.90;;;;;;8363919;28;19939;-51
2021/11/09 21:26:27;;;;;;;;;;;16.30;40.90;;;;;;8363417;28;19924;-53
2021/11/09 21:30:43;;;;;;;;;;;16.30;41.40;;;;;;8364008;28;19942;-53
2021/11/09 21:39:07;;;;;;;;;;;16.30;40.90;;;;;;8363788;28;19979;-49
2021/11/09 21:43:10;;;;;;;;;;;16.20;40.80;;;;;;8363851;28;19917;-48
2021/11/09 21:47:11;;;;;;;;;;;16.30;40.90;;;;;;8363514;28;19928;-49
2021/11/09 21:51:11;;;;;;;;;;;16.30;40.90;;;;;;8363233;28;19942;-49
2021/11/09 21:55:12;;;;;;;;;;;16.30;40.90;;;;;;8363887;28;19925;-48
2021/11/09 21:59:13;;;;;;;;;;;16.30;40.90;;;;;;8363416;28;19917;-48
2021/11/09 22:03:13;;;;;;;;;;;16.30;40.90;;;;;;8362777;28;19997;-51
2021/11/09 22:07:14;;;;;;;;;;;16.30;40.90;;;;;;8363249;28;19931;-49
2021/11/09 22:11:14;;;;;;;;;;;16.20;40.90;;;;;;8363376;28;19948;-48
2021/11/09 22:15:17;;;;;;;;;;;16.20;40.90;;;;;;8362905;28;19917;-49
2021/11/09 22:19:17;;;;;;;;;;;16.20;40.90;;;;;;8363331;28;20264;-49
2021/11/09 22:23:18;;;;;;;;;;;16.20;40.90;;;;;;8362766;28;19925;-48
2021/11/09 22:27:18;;;;;;;;;;;16.20;40.90;;;;;;8362940;28;19917;-49
2021/11/09 22:31:19;;;;;;;;;;;16.30;40.90;;;;;;8363733;28;20019;-50
2021/11/09 22:35:19;;;;;;;;;;;16.30;40.90;;;;;;8368926;28;20293;-48
2021/11/09 22:39:20;;;;;;;;;;;16.20;40.80;;;;;;8368804;28;19917;-52
2021/11/09 22:43:20;;;;;;;;;;;16.30;40.90;;;;;;8368875;28;20321;-49
2021/11/09 22:47:21;;;;;;;;;;;16.20;40.80;;;;;;8368348;28;19921;-49
2021/11/09 22:51:21;;;;;;;;;;;16.30;40.90;;;;;;8368929;28;19916;-48
2021/11/09 22:55:22;;;;;;;;;;;16.20;40.80;;;;;;8368975;28;19921;-49
2021/11/09 22:59:22;;;;;;;;;;;16.20;40.80;;;;;;8368075;28;19917;-49
2021/11/09 23:03:23;;;;;;;;;;;16.30;40.80;;;;;;8368696;28;19978;-49
2021/11/09 23:07:23;;;;;;;;;;;16.30;40.80;;;;;;8368107;28;19924;-49
2021/11/09 23:11:24;;;;;;;;;;;16.20;40.70;;;;;;8367558;28;19912;-50
2021/11/09 23:15:25;;;;;;;;;;;16.30;40.80;;;;;;8367919;28;20004;-50
2021/11/09 23:19:25;;;;;;;;;;;16.30;40.90;;;;;;8367702;28;20297;-52
2021/11/09 23:23:26;;;;;;;;;;;16.20;40.80;;;;;;8366879;28;20011;-51
2021/11/09 23:27:27;;;;;;;;;;;16.20;40.80;;;;;;8367770;28;20267;-54
2021/11/09 23:31:27;;;;;;;;;;;16.20;40.80;;;;;;8367675;28;19917;-51
2021/11/09 23:35:29;;;;;;;;;;;16.20;40.80;;;;;;8365651;28;19958;-53
2021/11/09 23:39:29;;;;;;;;;;;16.20;40.80;;;;;;8367162;28;20362;-51
2021/11/09 23:43:30;;;;;;;;;;;16.20;40.80;;;;;;8365878;28;19924;-50
2021/11/09 23:47:30;;;;;;;;;;;16.20;40.80;;;;;;8366582;28;20008;-50
2021/11/09 23:51:31;;;;;;;;;;;16.20;40.80;;;;;;8367141;28;19912;-47
2021/11/09 23:55:32;;;;;;;;;;;16.20;40.80;;;;;;8367334;28;19942;-48
2021/11/09 23:59:32;;;;;;;;;;;16.20;40.80;;;;;;8365984;28;19923;-49
